createdAt,value
2022-10-23T00:02:33.964Z,32.20
2022-10-23T00:07:36.796Z,36.80
2022-10-23T00:12:39.742Z,35.90
2022-10-23T00:17:42.975Z,35.50
2022-10-23T00:22:46.005Z,35.50
2022-10-23T00:27:48.891Z,39.20
2022-10-23T00:32:51.626Z,35.40
2022-10-23T00:37:54.384Z,42.90
2022-10-23T00:42:57.184Z,32.00
2022-10-23T00:48:03.784Z,31.20
2022-10-23T00:53:07.843Z,31.90
2022-10-23T00:58:10.625Z,33.80
2022-10-23T01:03:16.482Z,29.20
2022-10-23T01:08:31.310Z,29.50
2022-10-23T01:13:55.923Z,29.80
2022-10-23T01:19:04.029Z,29.20
2022-10-23T01:24:22.873Z,31.60
2022-10-23T01:29:39.845Z,35.90
2022-10-23T01:35:02.503Z,30.30
2022-10-23T01:40:14.094Z,36.20
2022-10-23T01:45:27.807Z,32.50
2022-10-23T01:50:31.897Z,32.10
2022-10-23T01:55:39.252Z,26.40
2022-10-23T02:00:45.799Z,30.50
2022-10-23T02:05:48.688Z,30.40
2022-10-23T02:11:13.113Z,32.60
2022-10-23T02:16:41.504Z,35.20
2022-10-23T02:22:05.055Z,29.90
2022-10-23T02:27:15.980Z,33.80
2022-10-23T02:32:22.460Z,37.00
2022-10-23T02:37:25.696Z,33.70
2022-10-23T02:42:34.515Z,39.70
2022-10-23T02:48:04.447Z,33.00
2022-10-23T02:53:16.544Z,34.50
2022-10-23T02:58:23.243Z,36.60
2022-10-23T03:03:32.999Z,35.20
2022-10-23T03:08:53.015Z,40.20
2022-10-23T03:13:55.818Z,40.10
2022-10-23T03:18:58.635Z,37.40
2022-10-23T03:24:01.464Z,36.20
2022-10-23T03:29:04.243Z,34.50
2022-10-23T03:34:11.296Z,35.30
2022-10-23T03:39:14.043Z,41.00
2022-10-23T03:44:16.928Z,37.80
2022-10-23T03:49:19.729Z,42.30
2022-10-23T03:54:25.391Z,39.60
2022-10-23T03:59:28.731Z,40.20
2022-10-23T04:04:31.497Z,39.50
2022-10-23T04:14:37.207Z,37.90
2022-10-23T04:19:39.944Z,39.80
2022-10-23T04:24:46.736Z,43.10
2022-10-23T04:29:49.592Z,39.00
2022-10-23T04:34:52.668Z,43.90
2022-10-23T04:44:58.122Z,33.40
2022-10-23T04:50:00.937Z,39.80
2022-10-23T04:55:04.475Z,42.50
2022-10-23T05:00:10.632Z,39.80
2022-10-23T05:05:13.344Z,45.30
2022-10-23T05:10:16.113Z,35.70
2022-10-23T05:15:18.916Z,35.30
2022-10-23T05:20:26.955Z,40.00
2022-10-23T05:25:30.843Z,40.30
2022-10-23T05:30:34.223Z,38.30
2022-10-23T05:35:38.944Z,35.40
2022-10-23T05:40:41.784Z,38.80
2022-10-23T05:45:44.556Z,35.20
2022-10-23T05:50:47.315Z,36.80
2022-10-23T05:55:50.065Z,39.20
2022-10-23T06:00:52.794Z,39.80
2022-10-23T06:05:55.507Z,37.50
2022-10-23T06:10:58.339Z,46.20
2022-10-23T06:16:15.297Z,43.90
2022-10-23T06:21:18.374Z,40.20
2022-10-23T06:31:26.971Z,30.60
2022-10-23T06:36:29.785Z,35.30
2022-10-23T06:41:32.591Z,31.00
2022-10-23T06:46:36.108Z,24.40
2022-10-23T06:51:38.844Z,27.20
2022-10-23T06:56:41.558Z,27.80
2022-10-23T07:01:44.451Z,25.20
2022-10-23T07:11:50.408Z,30.20
2022-10-23T07:16:53.191Z,24.60
2022-10-23T07:21:56.028Z,25.50
2022-10-23T07:26:58.790Z,26.60
2022-10-23T07:32:02.016Z,22.00
2022-10-23T07:37:04.831Z,26.10
2022-10-23T07:42:09.818Z,23.70
2022-10-23T07:47:12.758Z,23.40
2022-10-23T07:57:18.310Z,29.40
2022-10-23T08:02:21.120Z,25.20
2022-10-23T08:07:23.899Z,27.90
2022-10-23T08:12:26.753Z,27.80
2022-10-23T08:17:29.509Z,26.20
2022-10-23T08:22:32.327Z,30.40
2022-10-23T08:27:35.402Z,31.60
2022-10-23T08:37:41.134Z,26.90
2022-10-23T08:42:51.351Z,26.30
2022-10-23T08:47:58.382Z,25.90
2022-10-23T08:53:32.615Z,22.90
2022-10-23T09:04:13.480Z,22.10
2022-10-23T09:09:38.508Z,15.60
2022-10-23T09:14:52.395Z,17.10
2022-10-23T09:20:07.594Z,17.20
2022-10-23T09:25:16.132Z,23.10
2022-10-23T09:30:35.817Z,17.20
2022-10-23T09:35:38.581Z,18.80
2022-10-23T09:40:43.915Z,21.90
2022-10-23T09:46:01.176Z,19.70
2022-10-23T09:51:25.432Z,29.20
2022-10-23T09:56:40.969Z,25.40
2022-10-23T10:01:52.710Z,20.00
2022-10-23T10:06:58.515Z,24.90
2022-10-23T10:12:30.531Z,23.90
2022-10-23T10:17:42.775Z,21.80
2022-10-23T10:23:01.006Z,30.30
2022-10-23T10:28:36.220Z,30.90
2022-10-23T10:33:51.286Z,31.90
2022-10-23T10:38:59.909Z,28.20
2022-10-23T10:44:24.797Z,35.60
2022-10-23T10:50:09.350Z,29.00
2022-10-23T10:55:18.052Z,36.80
2022-10-23T11:00:23.277Z,29.60
2022-10-23T11:05:34.931Z,35.90
2022-10-23T11:10:42.724Z,38.00
2022-10-23T11:15:46.200Z,32.70
2022-10-23T11:20:54.938Z,32.30
2022-10-23T11:26:23.358Z,29.20
2022-10-23T11:31:34.299Z,32.00
2022-10-23T11:37:01.657Z,25.40
2022-10-23T11:42:04.417Z,24.60
2022-10-23T11:47:36.428Z,30.20
2022-10-23T11:53:13.080Z,28.50
2022-10-23T11:58:23.571Z,35.00
2022-10-23T12:03:40.716Z,37.90
2022-10-23T12:08:50.240Z,34.60
2022-10-23T12:13:53.067Z,30.00
2022-10-23T12:18:57.098Z,41.00
2022-10-23T12:24:22.854Z,34.40
2022-10-23T12:29:34.900Z,32.90
2022-10-23T12:34:56.613Z,35.30
2022-10-23T12:40:02.011Z,28.30
2022-10-23T12:45:19.362Z,35.30
2022-10-23T12:50:24.057Z,28.70
2022-10-23T12:55:30.926Z,30.10
2022-10-23T13:00:36.755Z,25.50
2022-10-23T13:05:39.581Z,24.70
2022-10-23T13:15:45.962Z,35.40
2022-10-23T13:20:51.889Z,28.20
2022-10-23T13:26:23.501Z,26.20
2022-10-23T13:31:33.908Z,24.40
2022-10-23T13:36:39.650Z,23.20
2022-10-23T13:41:45.612Z,21.90
2022-10-23T13:46:48.937Z,26.40
2022-10-23T13:51:53.889Z,28.00
2022-10-23T13:56:57.760Z,22.60
2022-10-23T14:02:01.007Z,26.20
2022-10-23T14:07:04.045Z,29.30
2022-10-23T14:12:07.259Z,33.30
2022-10-23T14:17:09.986Z,27.80
2022-10-23T14:22:13.066Z,37.80
2022-10-23T14:27:15.862Z,30.50
2022-10-23T14:32:18.642Z,35.90
2022-10-23T14:37:21.956Z,28.10
2022-10-23T14:42:26.970Z,26.70
2022-10-23T14:47:32.276Z,28.80
2022-10-23T14:57:37.759Z,30.30
2022-10-23T15:02:40.689Z,35.50
2022-10-23T15:12:46.466Z,35.10
2022-10-23T15:17:49.569Z,33.30
2022-10-23T15:22:52.303Z,35.50
2022-10-23T15:27:55.044Z,74.90
2022-10-23T15:32:57.917Z,62.60
2022-10-23T15:38:00.694Z,52.70
2022-10-23T15:43:05.029Z,63.00
2022-10-23T15:48:08.606Z,65.20
2022-10-23T15:58:49.947Z,63.20
2022-10-23T16:03:53.174Z,64.40
2022-10-23T16:08:56.037Z,80.70
2022-10-23T16:14:00.046Z,135.30
2022-10-23T16:19:04.669Z,119.50
2022-10-23T16:24:08.597Z,98.90
2022-10-23T16:29:11.830Z,121.10
2022-10-23T16:34:14.711Z,124.70
2022-10-23T16:39:19.113Z,115.30
2022-10-23T16:44:21.835Z,147.70
2022-10-23T16:49:24.606Z,396.40
2022-10-23T16:54:27.372Z,110.80
2022-10-23T16:59:30.229Z,95.70
2022-10-23T17:04:32.968Z,90.80
2022-10-23T17:09:35.871Z,101.30
2022-10-23T17:14:39.275Z,64.00
2022-10-23T17:19:46.514Z,85.00
2022-10-23T17:24:52.961Z,78.60
2022-10-23T17:29:56.969Z,90.10
2022-10-23T17:34:59.690Z,83.80
2022-10-23T17:40:02.707Z,66.60
2022-10-23T17:45:06.213Z,81.20
2022-10-23T17:50:09.620Z,82.90
2022-10-23T17:55:12.382Z,78.90
2022-10-23T18:00:16.270Z,84.40
2022-10-23T18:05:18.999Z,79.60
2022-10-23T18:10:21.739Z,86.30
2022-10-23T18:15:24.559Z,86.20
2022-10-23T18:20:27.743Z,74.60
2022-10-23T18:25:31.033Z,91.90
2022-10-23T18:35:42.065Z,85.50
2022-10-23T18:40:45.055Z,69.80
2022-10-23T18:45:47.936Z,84.50
2022-10-23T18:50:50.662Z,95.00
2022-10-23T18:55:53.462Z,88.20
2022-10-23T19:00:56.226Z,72.00
2022-10-23T19:05:59.122Z,66.90
2022-10-23T19:11:01.906Z,70.80
2022-10-23T19:16:08.431Z,79.70
2022-10-23T19:21:11.848Z,87.20
2022-10-23T19:26:15.373Z,75.30
2022-10-23T19:31:18.773Z,89.90
2022-10-23T19:36:23.574Z,109.90
2022-10-23T19:41:26.574Z,94.10
2022-10-23T19:46:29.355Z,90.10
2022-10-23T19:51:32.885Z,84.70
2022-10-23T19:56:36.663Z,83.20
2022-10-23T20:01:39.625Z,103.30
2022-10-23T20:11:45.489Z,94.20
2022-10-23T20:21:57.813Z,92.80
2022-10-23T20:27:00.647Z,84.40
2022-10-23T20:32:03.497Z,59.80
2022-10-23T20:37:06.248Z,52.10
2022-10-23T20:42:09.019Z,71.60
2022-10-23T20:47:11.830Z,79.50
2022-10-23T20:52:14.563Z,77.90
2022-10-23T20:57:20.548Z,70.80
2022-10-23T21:02:24.302Z,67.10
2022-10-23T21:07:27.196Z,64.90
2022-10-23T21:12:29.990Z,56.50
2022-10-23T21:17:36.167Z,62.90
2022-10-23T21:22:39.189Z,54.20
2022-10-23T21:27:42.197Z,51.80
2022-10-23T21:37:47.715Z,49.40
2022-10-23T21:42:50.440Z,39.50
2022-10-23T21:47:53.282Z,37.60
2022-10-23T21:52:57.212Z,32.80
2022-10-23T21:58:00.011Z,35.60
2022-10-23T22:03:02.823Z,34.70
2022-10-23T22:08:06.025Z,37.50
2022-10-23T22:13:08.824Z,33.10
2022-10-23T22:18:11.625Z,35.10
2022-10-23T22:23:14.527Z,32.80
2022-10-23T22:28:17.838Z,35.80
2022-10-23T22:33:20.643Z,35.90
2022-10-23T22:38:23.442Z,34.60
2022-10-23T22:43:26.242Z,32.70
2022-10-23T22:48:29.042Z,32.40
2022-10-23T22:53:33.031Z,29.60
2022-10-23T22:58:37.149Z,26.90
2022-10-23T23:03:40.289Z,33.10
2022-10-23T23:08:43.805Z,30.70
2022-10-23T23:13:47.921Z,29.70
2022-10-23T23:18:51.276Z,33.30
2022-10-23T23:23:54.750Z,32.80
2022-10-23T23:28:57.492Z,31.70
2022-10-23T23:34:00.398Z,32.60
2022-10-23T23:44:12.246Z,32.20
2022-10-23T23:49:15.048Z,32.80
2022-10-23T23:54:18.158Z,31.30
